createdAt,value
2023-04-03T00:00:34.966Z,86.74
2023-04-03T00:01:34.691Z,86.45
2023-04-03T00:02:34.657Z,86.07
2023-04-03T00:03:34.549Z,85.31
2023-04-03T00:04:34.478Z,85.31
2023-04-03T00:05:55.333Z,85.78
2023-04-03T00:06:34.278Z,85.60
2023-04-03T00:07:34.194Z,86.16
2023-04-03T00:08:34.127Z,86.07
2023-04-03T00:09:34.031Z,86.26
2023-04-03T00:10:33.976Z,85.60
2023-04-03T00:11:54.832Z,86.45
2023-04-03T00:12:33.772Z,86.64
2023-04-03T00:13:33.696Z,86.83
2023-04-03T00:14:33.606Z,87.21
2023-04-03T00:15:33.539Z,87.12
2023-04-03T00:16:33.455Z,87.21
2023-04-03T00:17:54.339Z,87.68
2023-04-03T00:18:33.277Z,87.40
2023-04-03T00:19:33.179Z,87.40
2023-04-03T00:20:33.100Z,87.49
2023-04-03T00:21:33.016Z,87.49
2023-04-03T00:22:32.927Z,87.30
2023-04-03T00:23:53.819Z,87.77
2023-04-03T00:24:32.759Z,87.21
2023-04-03T00:25:32.686Z,87.40
2023-04-03T00:26:32.601Z,88.16
2023-04-03T00:27:32.505Z,87.87
2023-04-03T00:28:32.424Z,88.06
2023-04-03T00:29:53.324Z,88.92
2023-04-03T00:30:32.260Z,88.63
2023-04-03T00:31:32.224Z,89.20
2023-04-03T00:32:32.132Z,89.20
2023-04-03T00:33:32.013Z,88.35
2023-04-03T00:34:31.932Z,89.01
2023-04-03T00:35:52.869Z,88.16
2023-04-03T00:36:31.958Z,87.87
2023-04-03T00:37:31.664Z,87.77
2023-04-03T00:38:31.576Z,87.12
2023-04-03T00:39:31.493Z,86.93
2023-04-03T00:40:31.406Z,86.93
2023-04-03T00:41:52.311Z,87.59
2023-04-03T00:42:31.243Z,87.59
2023-04-03T00:43:31.160Z,87.40
2023-04-03T00:44:31.075Z,87.49
2023-04-03T00:45:31.000Z,87.77
2023-04-03T00:46:30.961Z,87.87
2023-04-03T00:47:51.847Z,87.40
2023-04-03T00:48:30.736Z,87.97
2023-04-03T00:49:30.652Z,88.16
2023-04-03T00:50:30.569Z,88.92
2023-04-03T00:51:30.495Z,88.63
2023-04-03T00:52:30.398Z,88.63
2023-04-03T00:53:51.307Z,88.25
2023-04-03T00:54:30.232Z,88.44
2023-04-03T00:55:30.145Z,88.35
2023-04-03T00:56:30.061Z,88.06
2023-04-03T00:57:30.050Z,88.25
2023-04-03T00:58:29.890Z,88.44
2023-04-03T00:59:50.792Z,87.87
2023-04-03T01:00:29.719Z,88.35
2023-04-03T01:01:29.717Z,88.44
2023-04-03T01:02:29.577Z,88.25
2023-04-03T01:03:29.474Z,88.16
2023-04-03T01:04:29.403Z,87.97
2023-04-03T01:05:50.283Z,87.87
2023-04-03T01:06:29.218Z,87.77
2023-04-03T01:07:29.134Z,87.40
2023-04-03T01:08:29.045Z,87.21
2023-04-03T01:09:28.972Z,87.40
2023-04-03T01:10:28.879Z,87.49
2023-04-03T01:11:49.784Z,87.68
2023-04-03T01:12:28.711Z,87.87
2023-04-03T01:13:28.627Z,87.59
2023-04-03T01:14:28.550Z,87.40
2023-04-03T01:15:28.461Z,87.49
2023-04-03T01:16:28.422Z,87.40
2023-04-03T01:17:49.306Z,87.40
2023-04-03T01:18:28.211Z,87.77
2023-04-03T01:19:28.127Z,87.40
2023-04-03T01:20:28.036Z,87.30
2023-04-03T01:21:27.985Z,87.21
2023-04-03T01:22:27.862Z,87.21
2023-04-03T01:23:48.811Z,88.16
2023-04-03T01:24:27.701Z,88.06
2023-04-03T01:25:27.651Z,88.30
2023-04-03T01:26:27.531Z,87.59
2023-04-03T01:27:27.446Z,87.40
2023-04-03T01:28:27.361Z,87.59
2023-04-03T01:29:48.262Z,87.68
2023-04-03T01:30:27.220Z,87.68
2023-04-03T01:31:27.144Z,87.87
2023-04-03T01:32:27.054Z,87.87
2023-04-03T01:33:26.951Z,88.16
2023-04-03T01:34:26.865Z,87.97
2023-04-03T01:35:47.790Z,88.16
2023-04-03T01:36:26.689Z,88.06
2023-04-03T01:37:26.625Z,88.06
2023-04-03T01:38:26.526Z,88.30
2023-04-03T01:39:26.445Z,88.06
2023-04-03T01:40:26.344Z,87.68
2023-04-03T01:41:47.315Z,87.97
2023-04-03T01:42:26.186Z,87.68
2023-04-03T01:43:26.098Z,87.59
2023-04-03T01:44:26.012Z,87.49
2023-04-03T01:45:25.964Z,87.40
2023-04-03T01:46:25.852Z,87.87
2023-04-03T01:47:46.812Z,87.54
2023-04-03T01:48:25.673Z,87.68
2023-04-03T01:49:25.590Z,87.49
2023-04-03T01:50:25.511Z,87.59
2023-04-03T01:51:25.423Z,87.68
2023-04-03T01:52:25.343Z,87.02
2023-04-03T01:53:46.247Z,87.40
2023-04-03T01:54:25.161Z,86.74
2023-04-03T01:55:25.085Z,87.59
2023-04-03T01:56:25.007Z,87.40
2023-04-03T01:57:24.972Z,87.68
2023-04-03T01:58:24.831Z,87.68
2023-04-03T01:59:45.724Z,87.59
2023-04-03T02:00:24.686Z,87.12
2023-04-03T02:01:24.663Z,87.21
2023-04-03T02:02:24.501Z,87.59
2023-04-03T02:03:24.419Z,87.21
2023-04-03T02:04:24.377Z,87.64
2023-04-03T02:05:45.241Z,88.44
2023-04-03T02:06:24.186Z,88.16
2023-04-03T02:07:24.080Z,88.11
2023-04-03T02:08:23.991Z,88.30
2023-04-03T02:09:23.918Z,88.16
2023-04-03T02:10:23.833Z,88.21
2023-04-03T02:11:44.719Z,88.35
2023-04-03T02:12:23.658Z,87.68
2023-04-03T02:13:23.587Z,88.44
2023-04-03T02:14:23.533Z,88.06
2023-04-03T02:15:23.424Z,88.06
2023-04-03T02:16:23.418Z,88.25
2023-04-03T02:17:44.258Z,87.40
2023-04-03T02:18:23.147Z,87.40
2023-04-03T02:19:23.070Z,86.83
2023-04-03T02:20:22.992Z,86.55
2023-04-03T02:21:22.898Z,86.79
2023-04-03T02:22:22.804Z,86.41
2023-04-03T02:23:43.699Z,86.60
2023-04-03T02:24:22.625Z,87.02
2023-04-03T02:25:22.552Z,87.35
2023-04-03T02:26:22.467Z,87.16
2023-04-03T02:27:22.383Z,87.35
2023-04-03T02:28:22.287Z,87.26
2023-04-03T02:29:43.193Z,87.26
2023-04-03T02:30:22.120Z,87.07
2023-04-03T02:31:22.075Z,87.26
2023-04-03T02:32:21.947Z,87.54
2023-04-03T02:33:21.870Z,87.73
2023-04-03T02:34:21.785Z,88.40
2023-04-03T02:35:42.709Z,87.92
2023-04-03T02:36:21.616Z,88.11
2023-04-03T02:37:21.532Z,87.54
2023-04-03T02:38:21.446Z,87.83
2023-04-03T02:39:21.360Z,88.21
2023-04-03T02:40:21.286Z,88.21
2023-04-03T02:41:42.176Z,88.11
2023-04-03T02:42:21.126Z,88.40
2023-04-03T02:43:21.044Z,88.21
2023-04-03T02:44:20.946Z,87.83
2023-04-03T02:45:20.865Z,87.54
2023-04-03T02:46:20.779Z,87.73
2023-04-03T02:47:41.699Z,87.83
2023-04-03T02:48:20.607Z,87.45
2023-04-03T02:49:20.521Z,87.83
2023-04-03T02:50:20.450Z,87.64
2023-04-03T02:51:20.347Z,87.54
2023-04-03T02:52:20.268Z,88.30
2023-04-03T02:53:41.166Z,88.49
2023-04-03T02:54:20.098Z,89.15
2023-04-03T02:55:20.018Z,88.87
2023-04-03T02:56:19.925Z,88.30
2023-04-03T02:57:19.861Z,88.11
2023-04-03T02:58:19.761Z,88.78
2023-04-03T02:59:40.656Z,88.96
2023-04-03T03:00:19.589Z,88.40
2023-04-03T03:01:19.535Z,87.73
2023-04-03T03:02:19.416Z,88.02
2023-04-03T03:03:19.358Z,88.30
2023-04-03T03:04:19.253Z,88.02
2023-04-03T03:05:40.148Z,88.21
2023-04-03T03:06:19.118Z,87.92
2023-04-03T03:07:19.007Z,88.02
2023-04-03T03:08:18.915Z,88.30
2023-04-03T03:09:18.856Z,88.78
2023-04-03T03:10:18.739Z,88.59
2023-04-03T03:11:39.650Z,88.21
2023-04-03T03:12:18.572Z,87.83
2023-04-03T03:13:18.498Z,87.92
2023-04-03T03:14:18.405Z,88.11
2023-04-03T03:15:18.356Z,88.21
2023-04-03T03:16:18.294Z,88.68
2023-04-03T03:17:39.172Z,88.96
2023-04-03T03:18:18.075Z,88.87
2023-04-03T03:19:17.987Z,88.02
2023-04-03T03:20:17.895Z,88.59
2023-04-03T03:21:17.814Z,88.87
2023-04-03T03:22:17.729Z,88.59
2023-04-03T03:23:38.630Z,88.87
2023-04-03T03:24:17.561Z,88.68
2023-04-03T03:25:17.474Z,88.68
2023-04-03T03:26:17.398Z,88.78
2023-04-03T03:27:17.309Z,88.49
2023-04-03T03:28:17.231Z,88.21
2023-04-03T03:29:38.117Z,88.21
2023-04-03T03:30:17.048Z,88.68
2023-04-03T03:31:17.022Z,88.78
2023-04-03T03:32:16.887Z,89.06
2023-04-03T03:33:16.799Z,89.15
2023-04-03T03:34:16.728Z,89.06
2023-04-03T03:35:37.986Z,89.15
2023-04-03T03:36:16.600Z,89.06
2023-04-03T03:37:16.466Z,89.25
2023-04-03T03:38:16.375Z,89.06
2023-04-03T03:39:16.309Z,89.72
2023-04-03T03:40:16.206Z,90.20
2023-04-03T03:41:37.105Z,89.91
2023-04-03T03:42:16.027Z,90.10
2023-04-03T03:43:15.973Z,90.39
2023-04-03T03:44:16.298Z,90.29
2023-04-03T03:45:15.784Z,90.48
2023-04-03T03:46:15.733Z,90.20
2023-04-03T03:47:36.610Z,90.29
2023-04-03T03:48:15.527Z,90.29
2023-04-03T03:49:15.444Z,90.39
2023-04-03T03:50:15.353Z,90.29
2023-04-03T03:51:15.277Z,90.67
2023-04-03T03:52:15.186Z,90.67
2023-04-03T03:53:36.082Z,90.48
2023-04-03T03:54:15.016Z,90.29
2023-04-03T03:55:14.935Z,90.29
2023-04-03T03:56:14.854Z,90.48
2023-04-03T03:57:14.841Z,90.58
2023-04-03T03:58:14.682Z,91.71
2023-04-03T03:59:35.594Z,91.62
2023-04-03T04:00:14.516Z,91.14
2023-04-03T04:01:14.426Z,91.43
2023-04-03T04:02:14.401Z,91.71
2023-04-03T04:03:14.332Z,91.62
2023-04-03T04:04:14.204Z,91.52
2023-04-03T04:05:35.378Z,91.24
2023-04-03T04:06:14.017Z,91.24
2023-04-03T04:07:13.935Z,91.52
2023-04-03T04:08:13.840Z,91.24
2023-04-03T04:09:13.746Z,92.19
2023-04-03T04:10:13.663Z,91.62
2023-04-03T04:11:34.583Z,92.00
2023-04-03T04:12:13.510Z,92.28
2023-04-03T04:13:13.425Z,92.00
2023-04-03T04:14:13.331Z,92.09
2023-04-03T04:15:13.244Z,92.38
2023-04-03T04:16:13.208Z,92.38
2023-04-03T04:17:34.098Z,92.76
2023-04-03T04:18:12.982Z,92.57
2023-04-03T04:19:12.906Z,92.66
2023-04-03T04:20:12.816Z,93.18
2023-04-03T04:21:12.734Z,92.94
2023-04-03T04:22:12.660Z,93.04
2023-04-03T04:23:33.548Z,93.23
2023-04-03T04:24:12.471Z,93.13
2023-04-03T04:25:12.394Z,92.76
2023-04-03T04:26:12.317Z,92.57
2023-04-03T04:27:12.219Z,93.13
2023-04-03T04:28:12.136Z,93.23
2023-04-03T04:29:33.031Z,92.94
2023-04-03T04:30:11.981Z,93.13
2023-04-03T04:31:11.914Z,92.94
2023-04-03T04:32:11.796Z,92.94
2023-04-03T04:33:11.720Z,93.27
2023-04-03T04:34:11.633Z,93.70
2023-04-03T04:35:32.646Z,93.61
2023-04-03T04:36:11.509Z,93.89
2023-04-03T04:37:11.379Z,93.75
2023-04-03T04:38:11.292Z,93.94
2023-04-03T04:39:11.212Z,93.75
2023-04-03T04:40:11.124Z,93.94
2023-04-03T04:41:32.024Z,93.89
2023-04-03T04:42:10.954Z,93.56
2023-04-03T04:43:10.868Z,93.70
2023-04-03T04:44:10.784Z,93.56
2023-04-03T04:45:10.702Z,93.37
2023-04-03T04:46:10.656Z,93.84
2023-04-03T04:47:31.582Z,93.61
2023-04-03T04:48:10.449Z,93.61
2023-04-03T04:49:10.353Z,93.37
2023-04-03T04:50:10.286Z,93.61
2023-04-03T04:51:10.193Z,93.80
2023-04-03T04:52:10.112Z,93.70
2023-04-03T04:53:30.997Z,93.75
2023-04-03T04:54:09.937Z,93.27
2023-04-03T04:55:09.843Z,93.94
2023-04-03T04:56:09.775Z,93.94
2023-04-03T04:57:09.692Z,93.84
2023-04-03T04:58:09.593Z,93.94
2023-04-03T04:59:30.495Z,94.51
2023-04-03T05:00:09.431Z,94.13
2023-04-03T05:01:09.339Z,94.42
2023-04-03T05:02:09.300Z,94.23
2023-04-03T05:03:09.206Z,94.04
2023-04-03T05:04:09.083Z,93.84
2023-04-03T05:05:29.976Z,93.94
2023-04-03T05:06:08.919Z,94.70
2023-04-03T05:07:08.845Z,94.42
2023-04-03T05:08:08.750Z,94.79
2023-04-03T05:09:08.656Z,94.98
2023-04-03T05:10:08.583Z,94.79
2023-04-03T05:11:29.477Z,95.07
2023-04-03T05:12:08.449Z,95.17
2023-04-03T05:13:08.316Z,95.07
2023-04-03T05:14:08.238Z,95.36
2023-04-03T05:15:08.159Z,94.89
2023-04-03T05:16:08.093Z,94.98
2023-04-03T05:17:28.963Z,95.07
2023-04-03T05:18:07.933Z,94.89
2023-04-03T05:19:07.815Z,95.17
2023-04-03T05:20:07.725Z,95.17
2023-04-03T05:21:07.640Z,95.07
2023-04-03T05:22:07.561Z,95.45
2023-04-03T05:23:28.445Z,95.26
2023-04-03T05:24:07.386Z,95.74
2023-04-03T05:25:07.298Z,95.45
2023-04-03T05:26:07.224Z,95.55
2023-04-03T05:27:07.133Z,95.69
2023-04-03T05:28:07.043Z,95.55
2023-04-03T05:29:27.942Z,95.64
2023-04-03T05:30:06.879Z,95.64
2023-04-03T05:31:06.823Z,96.21
2023-04-03T05:32:06.724Z,95.64
2023-04-03T05:33:06.660Z,95.98
2023-04-03T05:34:06.535Z,95.74
2023-04-03T05:35:27.433Z,95.83
2023-04-03T05:36:06.419Z,95.45
2023-04-03T05:37:06.279Z,95.64
2023-04-03T05:38:06.201Z,95.55
2023-04-03T05:39:06.112Z,96.21
2023-04-03T05:40:06.034Z,95.83
2023-04-03T05:41:26.926Z,95.83
2023-04-03T05:42:05.853Z,96.59
2023-04-03T05:43:05.766Z,96.12
2023-04-03T05:44:05.685Z,95.83
2023-04-03T05:45:05.600Z,96.12
2023-04-03T05:46:05.548Z,95.64
2023-04-03T05:47:26.419Z,95.88
2023-04-03T05:48:05.394Z,96.02
2023-04-03T05:49:05.263Z,96.12
2023-04-03T05:50:05.176Z,95.64
2023-04-03T05:51:05.094Z,96.40
2023-04-03T05:52:04.998Z,96.45
2023-04-03T05:53:25.900Z,96.36
2023-04-03T05:54:04.837Z,96.36
2023-04-03T05:55:04.754Z,96.17
2023-04-03T05:56:04.676Z,96.07
2023-04-03T05:57:04.587Z,96.26
2023-04-03T05:58:04.521Z,95.88
2023-04-03T05:59:25.389Z,96.55
2023-04-03T06:00:04.366Z,96.55
2023-04-03T06:01:04.244Z,95.88
2023-04-03T06:02:04.165Z,95.69
2023-04-03T06:03:04.213Z,95.88
2023-04-03T06:04:04.118Z,96.26
2023-04-03T06:05:24.873Z,95.98
2023-04-03T06:06:03.872Z,95.88
2023-04-03T06:07:03.730Z,95.98
2023-04-03T06:08:03.648Z,95.69
2023-04-03T06:09:03.939Z,96.36
2023-04-03T06:10:03.490Z,96.07
2023-04-03T06:11:24.370Z,96.26
2023-04-03T06:12:03.303Z,96.26
2023-04-03T06:13:03.215Z,96.36
2023-04-03T06:14:03.147Z,95.69
2023-04-03T06:15:03.067Z,95.69
2023-04-03T06:16:02.972Z,96.36
2023-04-03T06:17:23.913Z,96.07
2023-04-03T06:18:02.838Z,96.07
2023-04-03T06:19:02.705Z,95.79
2023-04-03T06:20:02.625Z,95.98
2023-04-03T06:21:02.546Z,96.55
2023-04-03T06:22:02.482Z,96.17
2023-04-03T06:23:23.382Z,96.26
2023-04-03T06:24:02.293Z,95.50
2023-04-03T06:25:02.202Z,95.50
2023-04-03T06:26:02.120Z,95.50
2023-04-03T06:27:02.032Z,95.79
2023-04-03T06:28:01.967Z,95.79
2023-04-03T06:29:22.869Z,95.69
2023-04-03T06:30:01.789Z,96.26
2023-04-03T06:31:01.708Z,95.98
2023-04-03T06:32:01.619Z,96.07
2023-04-03T06:33:01.544Z,96.45
2023-04-03T06:34:01.437Z,96.17
2023-04-03T06:35:22.336Z,97.11
2023-04-03T06:36:01.351Z,96.26
2023-04-03T06:37:01.223Z,96.83
2023-04-03T06:38:01.117Z,95.79
2023-04-03T06:39:01.014Z,96.26
2023-04-03T06:40:00.935Z,96.73
2023-04-03T06:41:21.819Z,96.45
2023-04-03T06:42:00.767Z,96.26
2023-04-03T06:43:00.672Z,96.26
2023-04-03T06:44:00.595Z,95.69
2023-04-03T06:45:00.504Z,94.74
2023-04-03T06:46:00.458Z,94.74
2023-04-03T06:47:21.329Z,95.22
2023-04-03T06:48:00.309Z,95.03
2023-04-03T06:49:00.171Z,95.22
2023-04-03T06:50:00.107Z,95.69
2023-04-03T06:51:00.013Z,94.93
2023-04-03T06:52:02.091Z,94.93
2023-04-03T06:53:20.813Z,95.03
2023-04-03T06:53:59.748Z,95.22
2023-04-03T06:54:59.654Z,95.12
2023-04-03T06:55:59.573Z,94.93
2023-04-03T06:56:59.623Z,95.50
2023-04-03T06:57:59.403Z,95.41
2023-04-03T06:59:20.296Z,94.84
2023-04-03T06:59:59.251Z,93.99
2023-04-03T07:00:59.143Z,94.74
2023-04-03T07:01:59.098Z,94.46
2023-04-03T07:02:59.008Z,94.37
2023-04-03T07:03:59.090Z,94.18
2023-04-03T07:05:19.933Z,95.22
2023-04-03T07:05:58.747Z,95.03
2023-04-03T07:06:58.642Z,94.27
2023-04-03T07:07:58.555Z,94.46
2023-04-03T07:08:58.465Z,94.65
2023-04-03T07:09:58.391Z,95.03
2023-04-03T07:11:19.294Z,94.93
2023-04-03T07:11:58.218Z,93.80
2023-04-03T07:12:58.139Z,93.89
2023-04-03T07:13:58.047Z,93.89
2023-04-03T07:14:57.962Z,93.61
2023-04-03T07:15:57.916Z,93.75
2023-04-03T07:17:19.810Z,93.94
2023-04-03T07:17:57.737Z,94.04
2023-04-03T07:18:57.636Z,92.90
2023-04-03T07:19:57.537Z,93.46
2023-04-03T07:20:57.460Z,93.18
2023-04-03T07:21:57.371Z,92.33
2023-04-03T07:23:18.258Z,92.04
2023-04-03T07:23:57.210Z,91.28
2023-04-03T07:24:57.116Z,91.57
2023-04-03T07:25:57.031Z,92.33
2023-04-03T07:26:56.949Z,91.66
2023-04-03T07:27:56.870Z,92.61
2023-04-03T07:29:17.762Z,92.61
2023-04-03T07:29:56.691Z,92.52
2023-04-03T07:30:56.605Z,92.14
2023-04-03T07:31:56.567Z,91.95
2023-04-03T07:32:56.522Z,91.57
2023-04-03T07:33:56.363Z,91.76
2023-04-03T07:35:17.256Z,91.47
2023-04-03T07:35:56.234Z,91.95
2023-04-03T07:36:56.108Z,91.38
2023-04-03T07:37:56.016Z,91.66
2023-04-03T07:38:55.935Z,92.33
2023-04-03T07:39:55.852Z,92.61
2023-04-03T07:41:16.768Z,91.57
2023-04-03T07:41:55.685Z,91.57
2023-04-03T07:42:55.587Z,92.52
2023-04-03T07:43:55.506Z,91.66
2023-04-03T07:44:55.450Z,91.38
2023-04-03T07:45:55.390Z,91.66
2023-04-03T07:47:16.233Z,92.61
2023-04-03T07:47:55.212Z,92.33
2023-04-03T07:48:56.084Z,92.61
2023-04-03T07:49:55.000Z,92.71
2023-04-03T07:50:54.920Z,92.14
2023-04-03T07:51:54.844Z,91.76
2023-04-03T07:53:15.728Z,92.33
2023-04-03T07:53:54.682Z,92.04
2023-04-03T07:54:54.582Z,91.95
2023-04-03T07:55:54.493Z,90.72
2023-04-03T07:56:54.431Z,89.77
2023-04-03T07:57:54.340Z,90.05
2023-04-03T07:59:15.216Z,90.00
2023-04-03T07:59:54.163Z,89.01
2023-04-03T08:00:54.092Z,89.11
2023-04-03T08:01:53.986Z,89.11
2023-04-03T08:02:54.033Z,90.43
2023-04-03T08:03:53.961Z,89.48
2023-04-03T08:05:14.711Z,89.58
2023-04-03T08:05:53.648Z,89.62
2023-04-03T08:06:53.563Z,88.77
2023-04-03T08:07:53.484Z,88.48
2023-04-03T08:08:53.393Z,89.91
2023-04-03T08:09:53.320Z,89.34
2023-04-03T08:11:14.207Z,89.06
2023-04-03T08:11:53.139Z,88.77
2023-04-03T08:12:53.065Z,88.01
2023-04-03T08:13:53.651Z,87.63
2023-04-03T08:14:52.901Z,87.63
2023-04-03T08:15:52.806Z,87.82
2023-04-03T08:17:13.705Z,87.82
2023-04-03T08:17:52.630Z,88.68
2023-04-03T08:18:52.545Z,88.10
2023-04-03T08:19:52.477Z,88.10
2023-04-03T08:20:52.379Z,87.73
2023-04-03T08:21:52.309Z,88.10
2023-04-03T08:23:13.187Z,87.45
2023-04-03T08:23:52.142Z,87.25
2023-04-03T08:24:58.461Z,87.92
2023-04-03T08:25:51.968Z,87.63
2023-04-03T08:26:51.894Z,86.97
2023-04-03T08:27:51.796Z,87.63
2023-04-03T08:29:12.682Z,87.06
2023-04-03T08:29:51.625Z,86.97
2023-04-03T08:30:51.610Z,87.92
2023-04-03T08:31:51.518Z,88.10
2023-04-03T08:32:51.433Z,86.59
2023-04-03T08:33:51.289Z,86.44
2023-04-03T08:35:12.179Z,85.17
2023-04-03T08:35:51.157Z,84.92
2023-04-03T08:36:51.047Z,85.07
2023-04-03T08:37:50.955Z,84.88
2023-04-03T08:38:50.862Z,84.45
2023-04-03T08:39:50.802Z,84.31
2023-04-03T08:41:11.698Z,84.26
2023-04-03T08:41:50.616Z,84.55
2023-04-03T08:42:50.534Z,84.64
2023-04-03T08:43:50.450Z,85.02
2023-04-03T08:44:50.364Z,85.30
2023-04-03T08:45:50.317Z,85.21
2023-04-03T08:47:11.172Z,84.74
2023-04-03T08:47:51.309Z,85.59
2023-04-03T08:48:50.102Z,83.97
2023-04-03T08:49:50.002Z,83.59
2023-04-03T08:50:49.857Z,83.97
2023-04-03T08:51:49.772Z,84.07
2023-04-03T08:53:10.665Z,84.26
2023-04-03T08:53:49.609Z,85.87
2023-04-03T08:54:49.531Z,85.78
2023-04-03T08:55:49.449Z,85.02
2023-04-03T08:56:49.458Z,84.26
2023-04-03T08:57:49.276Z,84.07
2023-04-03T08:59:10.165Z,84.17
2023-04-03T08:59:49.108Z,83.22
2023-04-03T09:00:49.022Z,82.08
2023-04-03T09:01:49.047Z,81.41
2023-04-03T09:02:48.906Z,81.70
2023-04-03T09:03:48.800Z,81.98
2023-04-03T09:05:09.748Z,81.98
2023-04-03T09:05:48.612Z,81.51
2023-04-03T09:06:48.527Z,79.90
2023-04-03T09:07:49.635Z,80.56
2023-04-03T09:08:48.350Z,80.56
2023-04-03T09:09:48.271Z,80.56
2023-04-03T09:11:09.160Z,81.45
2023-04-03T09:11:48.096Z,81.93
2023-04-03T09:12:48.019Z,82.12
2023-04-03T09:13:47.934Z,82.21
2023-04-03T09:14:47.852Z,79.55
2023-04-03T09:15:47.822Z,78.61
2023-04-03T09:17:08.662Z,78.70
2023-04-03T09:17:47.610Z,78.80
2023-04-03T09:18:47.528Z,78.51
2023-04-03T09:19:47.443Z,79.46
2023-04-03T09:20:47.433Z,80.32
2023-04-03T09:21:47.262Z,81.21
2023-04-03T09:23:08.166Z,82.16
2023-04-03T09:23:47.146Z,81.78
2023-04-03T09:24:47.012Z,82.35
2023-04-03T09:25:46.929Z,81.78
2023-04-03T09:26:46.861Z,79.60
2023-04-03T09:27:46.768Z,76.84
2023-04-03T09:29:07.703Z,74.94
2023-04-03T09:29:46.596Z,73.52
2023-04-03T09:30:46.517Z,74.75
2023-04-03T09:31:46.498Z,75.60
2023-04-03T09:32:46.993Z,74.37
2023-04-03T09:33:46.261Z,74.18
2023-04-03T09:35:19.028Z,74.75
2023-04-03T09:35:48.594Z,73.71
2023-04-03T09:36:46.092Z,71.43
2023-04-03T09:37:45.936Z,71.52
2023-04-03T09:38:45.850Z,71.04
2023-04-03T09:39:45.762Z,70.67
2023-04-03T09:41:06.669Z,70.29
2023-04-03T09:41:45.604Z,70.29
2023-04-03T09:42:48.837Z,70.10
2023-04-03T09:43:45.446Z,70.29
2023-04-03T09:44:45.353Z,70.48
2023-04-03T09:45:45.267Z,70.67
2023-04-03T09:47:06.244Z,71.33
2023-04-03T09:47:45.160Z,70.57
2023-04-03T09:48:45.597Z,70.76
2023-04-03T09:49:44.941Z,71.71
2023-04-03T09:50:44.857Z,72.66
2023-04-03T09:51:44.771Z,72.85
2023-04-03T09:53:05.764Z,72.56
2023-04-03T09:53:44.608Z,72.75
2023-04-03T09:54:44.533Z,72.47
2023-04-03T09:55:44.442Z,71.62
2023-04-03T09:56:44.366Z,70.10
2023-04-03T09:57:44.281Z,70.19
2023-04-03T09:59:05.178Z,70.57
2023-04-03T09:59:44.104Z,70.38
2023-04-03T10:00:44.069Z,70.48
2023-04-03T10:01:43.945Z,69.91
2023-04-03T10:02:43.891Z,69.71
2023-04-03T10:03:43.782Z,70.19
2023-04-03T10:05:43.617Z,68.48
2023-04-03T10:06:43.539Z,67.72
2023-04-03T10:07:48.675Z,67.91
2023-04-03T10:08:43.449Z,67.91
2023-04-03T10:09:43.282Z,68.48
2023-04-03T10:11:04.188Z,68.96
2023-04-03T10:11:43.114Z,69.34
2023-04-03T10:12:43.036Z,68.58
2023-04-03T10:13:50.682Z,69.53
2023-04-03T10:14:42.877Z,70.82
2023-04-03T10:15:42.784Z,70.63
2023-04-03T10:17:03.708Z,70.63
2023-04-03T10:17:42.658Z,70.25
2023-04-03T10:18:42.538Z,70.44
2023-04-03T10:19:42.452Z,70.73
2023-04-03T10:20:42.376Z,70.92
2023-04-03T10:21:42.285Z,71.20
2023-04-03T10:23:03.189Z,70.92
2023-04-03T10:23:42.121Z,71.20
2023-04-03T10:24:42.116Z,70.44
2023-04-03T10:25:41.952Z,69.59
2023-04-03T10:26:41.872Z,70.54
2023-04-03T10:27:41.792Z,71.77
2023-04-03T10:29:02.711Z,71.39
2023-04-03T10:29:41.625Z,71.48
2023-04-03T10:30:41.678Z,71.77
2023-04-03T10:31:41.466Z,72.44
2023-04-03T10:32:41.750Z,72.85
2023-04-03T10:33:41.293Z,72.19
2023-04-03T10:35:05.116Z,74.08
2023-04-03T10:35:41.143Z,74.85
2023-04-03T10:36:41.044Z,73.61
2023-04-03T10:37:40.961Z,71.23
2023-04-03T10:38:40.877Z,71.14
2023-04-03T10:39:40.788Z,71.71
2023-04-03T10:41:01.781Z,71.71
2023-04-03T10:41:40.626Z,71.71
2023-04-03T10:42:40.544Z,71.23
2023-04-03T10:43:40.584Z,69.34
2023-04-03T10:44:40.380Z,68.48
2023-04-03T10:45:40.350Z,67.25
2023-04-03T10:47:01.201Z,66.77
2023-04-03T10:47:40.150Z,66.74
2023-04-03T10:48:40.056Z,66.27
2023-04-03T10:49:44.571Z,65.60
2023-04-03T10:50:40.162Z,66.08
2023-04-03T10:51:39.798Z,67.40
2023-04-03T10:53:00.709Z,67.88
2023-04-03T10:53:39.642Z,66.93
2023-04-03T10:54:39.560Z,67.69
2023-04-03T10:55:39.471Z,68.01
2023-04-03T10:56:39.557Z,67.06
2023-04-03T10:57:39.346Z,66.30
2023-04-03T10:59:00.217Z,66.39
2023-04-03T10:59:39.145Z,65.67
2023-04-03T11:00:39.245Z,65.67
2023-04-03T11:01:39.047Z,65.00
2023-04-03T11:02:39.022Z,65.19
2023-04-03T11:03:38.906Z,65.19
2023-04-03T11:04:59.714Z,65.09
2023-04-03T11:05:38.858Z,63.67
2023-04-03T11:06:38.576Z,63.67
2023-04-03T11:07:38.483Z,63.86
2023-04-03T11:08:38.446Z,64.72
2023-04-03T11:09:38.325Z,65.95
2023-04-03T11:10:59.219Z,67.57
2023-04-03T11:11:38.167Z,66.71
2023-04-03T11:12:38.155Z,66.05
2023-04-03T11:13:37.994Z,66.42
2023-04-03T11:14:37.913Z,65.76
2023-04-03T11:15:38.008Z,65.09
2023-04-03T11:16:58.805Z,64.90
2023-04-03T11:17:37.706Z,65.38
2023-04-03T11:18:37.581Z,65.76
2023-04-03T11:19:37.519Z,65.09
2023-04-03T11:20:37.418Z,62.34
2023-04-03T11:21:37.331Z,61.48
2023-04-03T11:22:58.231Z,62.81
2023-04-03T11:23:48.938Z,64.81
2023-04-03T11:24:37.089Z,65.95
2023-04-03T11:25:37.180Z,65.09
2023-04-03T11:26:36.941Z,65.19
2023-04-03T11:27:36.835Z,64.14
2023-04-03T11:28:57.815Z,63.86
2023-04-03T11:29:36.676Z,65.09
2023-04-03T11:30:36.596Z,65.09
2023-04-03T11:31:36.543Z,65.19
2023-04-03T11:32:36.451Z,63.86
2023-04-03T11:33:36.369Z,64.14
2023-04-03T11:34:57.245Z,63.57
2023-04-03T11:35:36.469Z,62.53
2023-04-03T11:36:36.473Z,63.48
2023-04-03T11:37:36.013Z,62.34
2023-04-03T11:38:35.933Z,62.72
2023-04-03T11:39:35.862Z,63.95
2023-04-03T11:40:56.751Z,62.46
2023-04-03T11:41:35.754Z,61.29
2023-04-03T11:42:35.690Z,60.44
2023-04-03T11:43:35.520Z,61.01
2023-04-03T11:44:35.525Z,61.10
2023-04-03T11:45:35.578Z,60.63
2023-04-03T11:46:57.655Z,60.44
2023-04-03T11:47:35.234Z,61.39
2023-04-03T11:48:35.144Z,63.39
2023-04-03T11:49:35.033Z,63.10
2023-04-03T11:50:34.949Z,64.62
2023-04-03T11:51:34.864Z,65.09
2023-04-03T11:52:55.771Z,65.03
2023-04-03T11:53:34.729Z,66.36
2023-04-03T11:54:42.189Z,66.65
2023-04-03T11:55:34.542Z,65.70
2023-04-03T11:56:34.464Z,65.92
2023-04-03T11:57:34.414Z,69.44
2023-04-03T11:58:55.268Z,69.73
2023-04-03T11:59:34.201Z,66.91
2023-04-03T12:00:34.202Z,64.24
2023-04-03T12:01:34.038Z,61.96
2023-04-03T12:02:36.324Z,60.34
2023-04-03T12:03:33.920Z,59.67
2023-04-03T12:04:54.781Z,59.77
2023-04-03T12:05:33.706Z,61.38
2023-04-03T12:06:33.638Z,61.13
2023-04-03T12:07:33.553Z,61.04
2023-04-03T12:08:33.499Z,59.89
2023-04-03T12:09:33.400Z,59.32
2023-04-03T12:10:55.069Z,58.75
2023-04-03T12:11:33.267Z,59.70
2023-04-03T12:12:33.159Z,61.90
2023-04-03T12:13:33.058Z,58.78
2023-04-03T12:14:32.982Z,59.03
2023-04-03T12:15:32.912Z,57.51
2023-04-03T12:16:53.960Z,54.27
2023-04-03T12:17:32.778Z,52.72
2023-04-03T12:18:32.660Z,53.49
2023-04-03T12:19:41.959Z,54.44
2023-04-03T12:20:32.494Z,54.91
2023-04-03T12:21:32.417Z,54.41
2023-04-03T12:22:53.316Z,53.94
2023-04-03T12:23:32.266Z,54.60
2023-04-03T12:24:32.174Z,55.43
2023-04-03T12:25:32.094Z,56.10
2023-04-03T12:26:38.450Z,55.90
2023-04-03T12:27:31.928Z,55.90
2023-04-03T12:28:52.830Z,57.62
2023-04-03T12:29:31.775Z,58.47
2023-04-03T12:30:31.692Z,57.62
2023-04-03T12:31:31.636Z,57.33
2023-04-03T12:32:31.634Z,58.12
2023-04-03T12:33:31.490Z,59.27
2023-04-03T12:34:52.347Z,58.40
2023-04-03T12:35:31.329Z,59.20
2023-04-03T12:36:31.211Z,58.53
2023-04-03T12:37:31.120Z,58.15
2023-04-03T12:38:31.039Z,57.99
2023-04-03T12:39:30.962Z,59.03
2023-04-03T12:40:51.857Z,56.09
2023-04-03T12:41:30.792Z,54.08
2023-04-03T12:42:30.716Z,54.85
2023-04-03T12:43:30.637Z,56.15
2023-04-03T12:44:30.556Z,56.44
2023-04-03T12:45:30.547Z,57.58
2023-04-03T12:46:51.427Z,56.15
2023-04-03T12:47:30.385Z,55.58
2023-04-03T12:48:30.314Z,55.29
2023-04-03T12:49:30.153Z,54.25
2023-04-03T12:50:30.071Z,53.49
2023-04-03T12:51:29.989Z,53.55
2023-04-03T12:52:50.888Z,54.13